Time;durP1;ratioP1;P1;durP2;ratioP2;P2;SDS_P1;SDS_P2;PMS_P1;PMS_P2;Temp;Humidity;BMP_temperature;BMP_pressure;BME280_temperature;BME280_humidity;BME280_pressure;Samples;Min_cycle;Max_cycle;Signal;HPM_P1;HPM_P2
2023/09/23 00:00:56;;;;;;;4.90;1.73;;;;;;;14.26;71.37;95730.75;4970356;28;20410;-67
2023/09/23 00:03:23;;;;;;;3.23;1.50;;;;;;;14.28;71.17;95729.69;4971287;28;20522;-66
2023/09/23 00:05:52;;;;;;;1.87;1.47;;;;;;;14.24;71.54;95727.38;4989146;28;20185;-67
2023/09/23 00:08:18;;;;;;;3.20;1.70;;;;;;;14.26;71.51;95725.47;4989265;28;20443;-67
2023/09/23 00:10:44;;;;;;;4.70;1.40;;;;;;;14.18;71.98;95726.84;4989509;28;20412;-66
2023/09/23 00:13:10;;;;;;;3.90;1.70;;;;;;;14.18;71.79;95715.47;4989433;28;20208;-66
2023/09/23 00:15:40;;;;;;;3.67;1.20;;;;;;;14.25;71.69;95721.16;4989111;28;20491;-66
2023/09/23 00:18:06;;;;;;;2.80;1.43;;;;;;;14.09;72.31;95719.56;4974617;28;20194;-67
2023/09/23 00:20:32;;;;;;;2.03;1.60;;;;;;;14.18;72.07;95726.84;4969741;28;20425;-67
2023/09/23 00:22:58;;;;;;;3.43;1.40;;;;;;;14.15;72.11;95721.81;4969840;28;20178;-67
2023/09/23 00:25:23;;;;;;;2.80;1.70;;;;;;;14.17;71.71;95714.63;4969421;28;21289;-67
2023/09/23 00:27:49;;;;;;;2.07;1.50;;;;;;;14.22;72.04;95727.50;4969224;28;20253;-67
2023/09/23 00:30:15;;;;;;;1.80;1.20;;;;;;;14.11;72.35;95725.59;4969694;28;20184;-67
2023/09/23 00:32:41;;;;;;;3.30;1.57;;;;;;;14.06;72.62;95733.00;4969660;28;20176;-66
2023/09/23 00:35:10;;;;;;;1.83;1.30;;;;;;;14.11;72.48;95728.22;4969122;28;20265;-66
2023/09/23 00:37:36;;;;;;;2.90;1.30;;;;;;;14.08;72.91;95717.91;4969420;28;20428;-66
2023/09/23 00:40:03;;;;;;;4.20;1.60;;;;;;;14.06;72.96;95724.22;4969319;28;20775;-65
2023/09/23 00:42:28;;;;;;;4.40;1.70;;;;;;;14.09;72.72;95722.22;4969277;28;20496;-67
2023/09/23 00:44:54;;;;;;;4.50;1.40;;;;;;;14.08;72.64;95728.44;4968992;28;20519;-67
2023/09/23 00:47:19;;;;;;;2.47;2.20;;;;;;;13.98;72.47;95720.31;4968354;28;20288;-67
2023/09/23 00:49:46;;;;;;;4.10;1.87;;;;;;;14.02;72.15;95728.84;4969050;28;20524;-67
2023/09/23 00:52:14;;;;;;;2.57;1.70;;;;;;;14.12;71.25;95723.78;4969066;28;20186;-68
2023/09/23 00:54:40;;;;;;;7.90;1.47;;;;;;;14.12;70.93;95722.00;4969188;28;20828;-67
2023/09/23 00:57:06;;;;;;;1.90;1.57;;;;;;;14.15;70.37;95724.44;4969050;28;20943;-67
2023/09/23 00:59:35;;;;;;;2.27;1.67;;;;;;;14.12;70.59;95724.63;4969518;28;20417;-67
2023/09/23 01:02:04;;;;;;;5.50;1.80;;;;;;;14.09;70.79;95730.13;4960222;28;20429;-67
2023/09/23 01:04:30;;;;;;;8.23;2.07;;;;;;;14.15;70.66;95739.44;4969686;28;20420;-67
2023/09/23 01:06:56;;;;;;;3.27;1.87;;;;;;;14.14;70.78;95735.09;4972420;28;20492;-67
2023/09/23 01:09:23;;;;;;;2.50;1.70;;;;;;;14.17;70.40;95745.44;4967923;28;20820;-67
2023/09/23 01:11:51;;;;;;;2.13;1.57;;;;;;;14.18;69.50;95740.06;4968721;28;20404;-67
2023/09/23 01:14:21;;;;;;;2.20;1.50;;;;;;;14.17;68.25;95748.94;4968442;28;20944;-67
2023/09/23 01:16:51;;;;;;;1.60;1.20;;;;;;;14.19;67.15;95760.19;4966723;28;20436;-67
2023/09/23 01:19:17;;;;;;;2.17;1.30;;;;;;;14.17;67.03;95764.75;4968469;28;20773;-66
2023/09/23 01:21:42;;;;;;;1.80;1.20;;;;;;;14.19;66.64;95768.13;4968597;28;20417;-67
2023/09/23 01:24:07;;;;;;;1.70;1.13;;;;;;;14.19;67.11;95767.28;4968661;28;20204;-67
2023/09/23 01:26:34;;;;;;;2.27;1.17;;;;;;;14.23;68.00;95767.94;4968220;28;20166;-67
2023/09/23 01:29:00;;;;;;;2.37;1.10;;;;;;;14.21;68.28;95765.38;4968572;28;20178;-67
2023/09/23 01:31:29;;;;;;;1.87;1.10;;;;;;;14.16;68.50;95772.78;4968335;28;21172;-67
2023/09/23 01:33:55;;;;;;;1.70;1.20;;;;;;;14.18;67.79;95787.56;4968198;28;20476;-67
2023/09/23 01:36:21;;;;;;;2.33;1.20;;;;;;;14.11;67.89;95783.63;4967232;28;20401;-67
2023/09/23 01:38:48;;;;;;;3.23;1.20;;;;;;;14.14;67.30;95782.59;4967088;28;20522;-67
2023/09/23 01:41:15;;;;;;;3.97;1.27;;;;;;;14.09;66.15;95782.91;4966226;28;20200;-67
2023/09/23 01:43:40;;;;;;;2.60;1.20;;;;;;;14.16;65.81;95780.69;4961347;28;20426;-68
2023/09/23 01:46:06;;;;;;;4.03;1.20;;;;;;;14.17;65.85;95788.50;4965545;28;20421;-67
2023/09/23 01:48:32;;;;;;;2.03;1.47;;;;;;;14.19;65.67;95794.50;4965135;28;20193;-67
2023/09/23 01:51:00;;;;;;;2.40;1.17;;;;;;;14.14;65.77;95801.06;4957673;28;20448;-67
2023/09/23 01:53:27;;;;;;;2.90;1.10;;;;;;;14.17;65.78;95798.19;4959818;28;20197;-68
2023/09/23 01:55:53;;;;;;;1.67;1.10;;;;;;;14.03;67.12;95803.56;4968677;28;20464;-67
2023/09/23 01:58:19;;;;;;;1.70;1.00;;;;;;;14.10;66.95;95811.00;4968615;28;20587;-68
2023/09/23 02:00:45;;;;;;;1.83;1.10;;;;;;;14.02;67.48;95817.72;4968189;28;20686;-67
2023/09/23 02:03:10;;;;;;;2.23;1.03;;;;;;;13.98;67.19;95823.22;4968818;28;20463;-67
2023/09/23 02:05:36;;;;;;;5.37;2.37;;;;;;;14.03;67.40;95827.31;4980055;28;20267;-65
2023/09/23 02:08:01;;;;;;;1.80;1.40;;;;;;;14.00;67.36;95832.81;4966879;28;20676;-67
2023/09/23 02:10:28;;;;;;;1.43;1.33;;;;;;;14.00;67.56;95824.88;4967650;28;20670;-66
2023/09/23 02:12:54;;;;;;;3.13;1.17;;;;;;;13.98;67.13;95828.47;4967568;28;20200;-67
2023/09/23 02:15:19;;;;;;;1.77;1.10;;;;;;;13.94;67.25;95827.00;4967289;28;20859;-67
2023/09/23 02:17:46;;;;;;;3.93;1.27;;;;;;;13.90;67.58;95836.03;4967438;28;20224;-67
2023/09/23 02:20:19;;;;;;;3.30;1.23;;;;;;;13.97;67.06;95837.31;4967273;28;20184;-67
2023/09/23 02:22:45;;;;;;;3.00;1.47;;;;;;;13.92;66.91;95849.97;4967544;28;20431;-67
2023/09/23 02:25:12;;;;;;;3.80;1.30;;;;;;;13.96;67.39;95846.19;4966896;28;20416;-67
2023/09/23 02:27:38;;;;;;;4.47;1.47;;;;;;;13.94;67.00;95841.97;4967442;28;20500;-67
2023/09/23 02:30:09;;;;;;;2.73;1.20;;;;;;;13.97;66.86;95842.59;4967209;28;21263;-67
2023/09/23 02:32:38;;;;;;;3.00;1.40;;;;;;;13.90;67.17;95846.59;4967463;28;20753;-67
2023/09/23 02:35:10;;;;;;;3.00;1.20;;;;;;;13.86;66.36;95847.72;4967227;28;20452;-67
2023/09/23 02:37:36;;;;;;;6.67;1.17;;;;;;;13.90;66.52;95858.94;4967762;28;20440;-66
2023/09/23 02:40:05;;;;;;;3.50;2.00;;;;;;;13.86;66.15;95860.09;4967639;28;21107;-66
2023/09/23 02:42:31;;;;;;;2.23;1.10;;;;;;;13.87;66.40;95867.06;4967468;28;20169;-67
2023/09/23 02:44:56;;;;;;;2.17;1.10;;;;;;;13.93;66.31;95867.47;4967544;28;20408;-66
2023/09/23 02:47:22;;;;;;;4.70;1.30;;;;;;;13.89;65.96;95862.50;4966882;28;20201;-66
2023/09/23 02:49:47;;;;;;;2.20;1.43;;;;;;;13.84;66.54;95873.38;4967144;28;20640;-66
2023/09/23 02:52:13;;;;;;;2.43;0.90;;;;;;;13.89;66.91;95875.69;4967171;28;20180;-66
2023/09/23 02:54:39;;;;;;;4.03;1.50;;;;;;;13.90;66.64;95874.78;4966991;28;20209;-66
2023/09/23 02:57:04;;;;;;;3.63;1.70;;;;;;;13.88;67.23;95884.56;4966619;28;20506;-67
2023/09/23 02:59:31;;;;;;;1.90;1.20;;;;;;;13.88;67.02;95879.28;4966903;28;20178;-67
2023/09/23 03:01:57;;;;;;;4.60;1.27;;;;;;;13.85;66.94;95880.34;4967023;28;20181;-67
2023/09/23 03:04:23;;;;;;;4.17;1.20;;;;;;;13.88;66.70;95876.66;4976297;28;20430;-67
2023/09/23 03:06:53;;;;;;;2.60;1.00;;;;;;;13.88;66.58;95877.50;4986425;28;20505;-67
2023/09/23 03:09:24;;;;;;;2.90;1.20;;;;;;;13.98;66.17;95881.25;4986331;28;20458;-67
2023/09/23 03:11:55;;;;;;;4.67;1.40;;;;;;;13.97;65.63;95889.25;4986157;28;20473;-67
2023/09/23 03:14:30;;;;;;;1.97;1.20;;;;;;;13.88;65.62;95885.41;4986540;28;20451;-67
2023/09/23 03:16:57;;;;;;;3.27;1.23;;;;;;;13.87;65.40;95893.44;4986143;28;20435;-67
2023/09/23 03:19:25;;;;;;;2.30;1.33;;;;;;;13.93;65.23;95890.38;4986427;28;20477;-67
2023/09/23 03:21:54;;;;;;;2.90;1.00;;;;;;;13.84;65.48;95897.13;4979567;28;20963;-67
2023/09/23 03:24:20;;;;;;;1.77;1.20;;;;;;;13.79;65.33;95906.25;4967026;28;20452;-66
2023/09/23 03:26:46;;;;;;;3.40;1.10;;;;;;;13.84;65.08;95897.13;4966603;28;20428;-66
2023/09/23 03:29:13;;;;;;;1.50;1.10;;;;;;;13.74;65.16;95899.50;4967129;28;20645;-67
2023/09/23 03:31:39;;;;;;;2.10;1.13;;;;;;;13.75;65.06;95903.84;4966724;28;20413;-67
2023/09/23 03:34:05;;;;;;;3.07;1.30;;;;;;;13.71;65.39;95894.41;4970271;28;20467;-66
2023/09/23 03:36:31;;;;;;;2.13;1.40;;;;;;;13.77;65.51;95904.59;4970424;28;20843;-66
2023/09/23 03:39:00;;;;;;;1.70;1.43;;;;;;;13.74;65.47;95896.00;4970393;28;20459;-66
2023/09/23 03:41:27;;;;;;;9.63;2.03;;;;;;;13.78;65.53;95900.16;4970415;28;20462;-66
2023/09/23 03:43:53;;;;;;;3.03;1.43;;;;;;;13.69;65.53;95908.66;4970916;28;20404;-67
2023/09/23 03:46:18;;;;;;;2.13;1.53;;;;;;;13.71;65.60;95910.25;4969788;28;20424;-66
2023/09/23 03:48:44;;;;;;;2.60;1.57;;;;;;;13.68;65.46;95910.44;4970575;28;20181;-67
2023/09/23 03:51:09;;;;;;;1.50;1.10;;;;;;;13.66;65.24;95906.22;4970052;28;20177;-67
2023/09/23 03:53:37;;;;;;;3.60;1.40;;;;;;;13.66;65.57;95911.50;4970223;28;20177;-67
2023/09/23 03:56:03;;;;;;;2.97;1.17;;;;;;;13.65;65.16;95913.25;4969489;28;20309;-67
2023/09/23 03:58:30;;;;;;;10.63;1.40;;;;;;;13.63;65.66;95912.53;4969950;28;20523;-67
2023/09/23 04:00:55;;;;;;;1.70;1.20;;;;;;;13.58;65.85;95919.88;4969942;28;20178;-67
2023/09/23 04:03:21;;;;;;;2.77;1.40;;;;;;;13.53;66.09;95911.41;4969690;28;20408;-67
2023/09/23 04:06:00;;;;;;;1.60;1.00;;;;;;;13.53;66.13;95921.94;4969542;28;20178;-68
2023/09/23 04:08:26;;;;;;;9.97;1.40;;;;;;;13.48;66.10;95924.03;4969835;28;20193;-67
2023/09/23 04:10:51;;;;;;;2.30;1.10;;;;;;;13.54;65.78;95923.66;4969639;28;20435;-67
2023/09/23 04:13:17;;;;;;;3.47;1.00;;;;;;;13.37;66.10;95932.63;4969638;28;20449;-67
2023/09/23 04:15:42;;;;;;;6.60;1.27;;;;;;;13.41;65.59;95928.84;4969504;28;20256;-67
2023/09/23 04:18:09;;;;;;;7.30;1.00;;;;;;;13.45;64.96;95926.88;4969808;28;20273;-67
2023/09/23 04:20:35;;;;;;;2.30;1.20;;;;;;;13.47;65.08;95932.91;4970379;28;20867;-67
2023/09/23 04:23:01;;;;;;;3.03;1.53;;;;;;;13.54;64.42;95929.78;4970148;28;20209;-67
2023/09/23 04:25:27;;;;;;;2.40;0.90;;;;;;;13.51;64.72;95937.88;4969584;28;21009;-67
2023/09/23 04:27:53;;;;;;;3.00;1.33;;;;;;;13.61;64.06;95937.31;4969504;28;20197;-67
2023/09/23 04:30:18;;;;;;;2.37;1.07;;;;;;;13.46;64.51;95949.66;4969828;28;20715;-67
2023/09/23 04:32:43;;;;;;;5.30;1.30;;;;;;;13.36;64.97;95952.00;4969866;28;20428;-67
2023/09/23 04:35:14;;;;;;;3.57;1.30;;;;;;;13.37;64.96;95959.00;4969369;28;20201;-67
2023/09/23 04:37:39;;;;;;;6.70;1.17;;;;;;;13.37;64.51;95958.13;4969575;28;20623;-67
2023/09/23 04:40:10;;;;;;;10.10;1.83;;;;;;;13.34;64.22;95960.00;4969424;28;20508;-67
2023/09/23 04:42:39;;;;;;;4.93;1.30;;;;;;;13.36;63.95;95972.25;4970544;28;20185;-67
2023/09/23 04:45:06;;;;;;;3.50;1.20;;;;;;;13.41;63.66;95976.28;4968052;28;20460;-67
2023/09/23 04:47:32;;;;;;;2.23;0.90;;;;;;;13.22;64.31;95981.81;4968739;28;20469;-67
2023/09/23 04:49:58;;;;;;;2.30;1.20;;;;;;;13.28;64.33;95986.75;4965466;28;20552;-67
2023/09/23 04:52:24;;;;;;;2.10;1.30;;;;;;;13.23;64.20;96004.59;4964664;28;20444;-67
2023/09/23 04:54:53;;;;;;;4.60;1.23;;;;;;;13.15;65.04;96012.09;4966549;28;20465;-67
2023/09/23 04:57:19;;;;;;;5.37;1.27;;;;;;;13.09;65.47;96012.50;4968566;28;20213;-67
2023/09/23 04:59:44;;;;;;;4.13;1.30;;;;;;;12.98;66.38;96023.66;4968881;28;20914;-67
2023/09/23 05:02:13;;;;;;;33.87;2.90;;;;;;;13.06;66.77;96017.94;4969013;28;20660;-69
2023/09/23 05:04:38;;;;;;;19.37;2.77;;;;;;;12.98;66.90;96022.81;4969355;28;20539;-67
2023/09/23 05:07:04;;;;;;;9.50;1.77;;;;;;;12.98;67.49;96023.66;4968954;28;20520;-66
2023/09/23 05:09:30;;;;;;;2.70;1.50;;;;;;;12.98;67.04;96021.03;4969154;28;20173;-67
2023/09/23 05:11:56;;;;;;;14.63;2.07;;;;;;;13.02;66.39;96032.25;4968729;28;20228;-66
2023/09/23 05:14:21;;;;;;;32.07;7.67;;;;;;;13.03;66.89;96029.50;4968728;28;20462;-67
2023/09/23 05:16:49;;;;;;;5.57;1.70;;;;;;;13.03;66.10;96028.66;4968337;28;20205;-67
2023/09/23 05:19:14;;;;;;;12.43;1.83;;;;;;;13.05;66.24;96042.59;4968589;28;20197;-67
2023/09/23 05:21:40;;;;;;;9.43;1.97;;;;;;;13.02;66.70;96038.34;4968636;28;20443;-67
2023/09/23 05:24:09;;;;;;;2.40;1.10;;;;;;;12.92;66.38;96043.31;4968719;28;20181;-67
2023/09/23 05:26:35;;;;;;;10.23;3.10;;;;;;;12.98;66.97;96046.53;4968725;28;20188;-67
2023/09/23 05:29:00;;;;;;;26.87;3.80;;;;;;;13.00;66.66;96050.75;4968550;28;20413;-67
2023/09/23 05:31:26;;;;;;;8.07;2.00;;;;;;;12.86;67.17;96043.66;4969630;28;20209;-67
2023/09/23 05:33:51;;;;;;;5.37;1.60;;;;;;;13.07;66.46;96053.88;4969327;28;20679;-67
2023/09/23 05:36:17;;;;;;;7.60;1.83;;;;;;;13.10;66.97;96053.69;4969883;28;20209;-67
2023/09/23 05:38:43;;;;;;;7.13;2.23;;;;;;;13.12;66.45;96051.81;4969402;28;20645;-68
2023/09/23 05:41:08;;;;;;;7.10;2.10;;;;;;;13.31;66.33;96048.97;4970235;28;20415;-68
2023/09/23 05:43:34;;;;;;;11.90;2.17;;;;;;;13.25;66.56;96054.56;4969866;28;20284;-69
2023/09/23 05:46:04;;;;;;;5.50;2.00;;;;;;;13.30;66.03;96063.09;4968913;28;20549;-69
2023/09/23 05:48:29;;;;;;;3.53;1.50;;;;;;;13.35;65.89;96061.03;4967919;28;20197;-69
2023/09/23 05:51:05;;;;;;;2.50;1.80;;;;;;;13.36;66.20;96062.69;4969214;28;20895;-69
2023/09/23 05:53:34;;;;;;;3.20;1.80;;;;;;;13.44;65.78;96057.84;4968839;28;20205;-69
2023/09/23 05:56:00;;;;;;;6.17;1.93;;;;;;;13.58;64.97;96054.31;4968459;28;20460;-67
2023/09/23 05:58:26;;;;;;;2.43;1.67;;;;;;;13.61;65.04;96062.06;4968737;28;20433;-67
2023/09/23 06:00:52;;;;;;;3.93;1.60;;;;;;;13.61;64.47;96062.06;4968660;28;20424;-68
2023/09/23 06:03:18;;;;;;;8.27;1.80;;;;;;;13.66;63.97;96075.81;4970935;28;20185;-68
2023/09/23 06:05:44;;;;;;;6.53;1.73;;;;;;;13.62;64.08;96074.28;4967804;28;20252;-68
2023/09/23 06:08:10;;;;;;;27.37;4.40;;;;;;;13.62;64.17;96069.03;4967809;28;20233;-68
2023/09/23 06:10:36;;;;;;;6.27;1.83;;;;;;;13.50;64.99;96077.69;4968076;28;20436;-68
2023/09/23 06:13:02;;;;;;;11.27;1.87;;;;;;;13.64;64.35;96082.13;4967768;28;20760;-68
2023/09/23 06:15:28;;;;;;;2.33;1.70;;;;;;;13.63;64.47;96080.41;4967329;28;20475;-68
2023/09/23 06:17:54;;;;;;;3.97;2.23;;;;;;;13.66;64.17;96081.09;4967580;28;20449;-69
2023/09/23 06:20:19;;;;;;;3.77;2.00;;;;;;;13.63;64.60;96088.31;4967566;28;20185;-69
2023/09/23 06:22:46;;;;;;;32.17;5.10;;;;;;;13.66;64.83;96088.16;4967596;28;20185;-70
2023/09/23 06:25:11;;;;;;;4.30;1.90;;;;;;;13.55;64.85;96089.63;4967446;28;20177;-67
2023/09/23 06:27:37;;;;;;;9.00;1.70;;;;;;;13.54;65.52;96095.88;4967605;28;20445;-69
2023/09/23 06:30:02;;;;;;;12.73;3.17;;;;;;;13.66;65.50;96096.91;4967925;28;20189;-68
2023/09/23 06:32:28;;;;;;;1.80;1.40;;;;;;;13.69;65.17;96098.50;4967743;28;20208;-69
2023/09/23 06:34:54;;;;;;;11.13;2.33;;;;;;;13.58;65.51;96101.78;4967427;28;20320;-69
2023/09/23 06:37:21;;;;;;;16.20;2.40;;;;;;;13.58;65.91;96108.84;4966769;28;20456;-68
2023/09/23 06:39:46;;;;;;;3.90;1.50;;;;;;;13.65;65.59;96116.28;4967617;28;20479;-70
2023/09/23 06:42:11;;;;;;;1.80;1.60;;;;;;;13.64;65.53;96117.25;4967357;28;20647;-68
2023/09/23 06:44:37;;;;;;;5.20;2.70;;;;;;;13.88;64.60;96114.06;4967598;28;20871;-69
2023/09/23 06:47:02;;;;;;;4.80;1.57;;;;;;;13.93;64.30;96115.44;4967299;28;20200;-69
2023/09/23 06:49:27;;;;;;;6.80;1.80;;;;;;;14.05;63.88;96119.13;4967595;28;20174;-68
2023/09/23 06:51:53;;;;;;;2.33;2.10;;;;;;;14.01;63.61;96125.56;4967459;28;20208;-69
2023/09/23 06:54:18;;;;;;;5.00;1.50;;;;;;;13.99;63.46;96130.06;4967197;28;20209;-69
2023/09/23 06:56:44;;;;;;;3.10;1.60;;;;;;;13.93;63.78;96135.72;4966892;28;20204;-69
2023/09/23 06:59:10;;;;;;;3.30;2.00;;;;;;;14.03;63.09;96139.50;4967079;28;20174;-68
2023/09/23 07:01:36;;;;;;;1.97;1.53;;;;;;;13.93;63.21;96143.63;4967055;28;20420;-69
2023/09/23 07:04:02;;;;;;;3.17;1.40;;;;;;;13.75;63.36;96148.25;4973479;28;20964;-69
2023/09/23 07:06:28;;;;;;;2.63;1.40;;;;;;;13.71;63.87;96152.84;4986583;28;20466;-68
2023/09/23 07:08:53;;;;;;;19.43;4.23;;;;;;;13.77;63.76;96162.16;4990107;28;20191;-69
2023/09/23 07:11:18;;;;;;;8.53;2.30;;;;;;;13.82;63.47;96160.13;4990473;28;20281;-68
2023/09/23 07:13:44;;;;;;;5.70;1.90;;;;;;;13.87;63.47;96157.22;4990956;28;20180;-69
2023/09/23 07:16:16;;;;;;;16.87;2.83;;;;;;;13.95;63.44;96165.50;4990631;28;20199;-68
2023/09/23 07:18:44;;;;;;;12.37;2.20;;;;;;;13.95;63.00;96168.13;4990941;28;20427;-69
2023/09/23 07:21:09;;;;;;;13.00;3.50;;;;;;;13.95;63.48;96176.03;4990878;28;20412;-69
2023/09/23 07:23:35;;;;;;;5.90;1.67;;;;;;;13.89;63.52;96177.28;4990673;28;20415;-68
2023/09/23 07:26:02;;;;;;;12.10;2.10;;;;;;;13.99;62.83;96180.19;4990768;28;20176;-68
2023/09/23 07:28:28;;;;;;;4.40;2.00;;;;;;;13.95;63.17;96181.31;4991034;28;20286;-68
2023/09/23 07:30:53;;;;;;;3.67;1.40;;;;;;;14.10;63.00;96185.66;4990600;28;20467;-68
2023/09/23 07:33:19;;;;;;;1.97;1.63;;;;;;;14.17;62.61;96192.28;4990293;28;20181;-68
2023/09/23 07:35:44;;;;;;;2.97;1.40;;;;;;;14.29;62.37;96195.06;4990122;28;20207;-68
2023/09/23 07:38:10;;;;;;;2.30;1.80;;;;;;;14.30;61.66;96199.41;4990379;28;20193;-68
2023/09/23 07:40:39;;;;;;;8.47;2.13;;;;;;;14.17;61.80;96207.22;4990499;28;20177;-68
2023/09/23 07:43:04;;;;;;;3.07;1.80;;;;;;;14.28;62.18;96214.50;4990820;28;20177;-68
2023/09/23 07:45:30;;;;;;;5.10;1.73;;;;;;;14.57;61.00;96218.88;4989417;28;20415;-69
2023/09/23 07:47:55;;;;;;;4.97;1.83;;;;;;;14.68;60.34;96219.97;4990282;28;20219;-69
2023/09/23 07:50:21;;;;;;;2.10;1.60;;;;;;;14.81;60.12;96224.38;4989820;28;20180;-68
2023/09/23 07:52:47;;;;;;;6.97;1.90;;;;;;;14.98;59.47;96230.38;4989409;28;20185;-69
2023/09/23 07:55:13;;;;;;;8.70;2.03;;;;;;;15.02;59.54;96231.88;4971651;28;20483;-69
2023/09/23 07:57:39;;;;;;;5.47;2.20;;;;;;;14.97;58.71;96234.81;4969953;28;20205;-68
2023/09/23 08:00:05;;;;;;;3.53;1.73;;;;;;;14.87;59.02;96235.50;4970168;28;20420;-69
2023/09/23 08:02:30;;;;;;;17.53;3.20;;;;;;;14.93;59.07;96240.38;4970448;28;20526;-69
2023/09/23 08:04:56;;;;;;;6.97;1.70;;;;;;;14.73;60.03;96244.28;4976057;28;20413;-69
2023/09/23 08:07:21;;;;;;;18.27;3.80;;;;;;;15.19;58.88;96250.16;4969946;28;20202;-69
2023/09/23 08:09:47;;;;;;;10.80;2.30;;;;;;;15.13;58.52;96245.25;4970550;28;20437;-69
2023/09/23 08:12:12;;;;;;;6.57;2.07;;;;;;;15.06;58.98;96245.75;4970870;28;20177;-68
2023/09/23 08:14:37;;;;;;;26.40;3.80;;;;;;;15.15;58.85;96258.38;4971294;28;20205;-69
2023/09/23 08:17:03;;;;;;;9.40;2.27;;;;;;;15.25;58.76;96259.47;4969745;28;21044;-68
2023/09/23 08:19:28;;;;;;;4.97;1.60;;;;;;;15.31;57.92;96263.53;4970303;28;20223;-69
2023/09/23 08:21:54;;;;;;;2.40;1.63;;;;;;;15.23;57.80;96262.19;4970389;28;20223;-68
2023/09/23 08:24:21;;;;;;;5.77;1.87;;;;;;;15.26;58.50;96274.41;4969644;28;20258;-69
2023/09/23 08:26:46;;;;;;;4.60;1.80;;;;;;;15.25;57.47;96278.81;4969733;28;20668;-69
2023/09/23 08:29:12;;;;;;;2.50;1.97;;;;;;;15.35;58.08;96281.69;4966525;28;20433;-69
2023/09/23 08:31:38;;;;;;;5.03;1.80;;;;;;;15.55;57.27;96279.56;4965608;28;20204;-69
2023/09/23 08:34:04;;;;;;;3.87;1.87;;;;;;;15.51;57.62;96280.72;4969504;28;20283;-68
2023/09/23 08:36:29;;;;;;;5.60;1.70;;;;;;;15.67;57.13;96274.31;4969214;28;20482;-69
2023/09/23 08:38:55;;;;;;;2.83;1.60;;;;;;;15.88;55.90;96290.59;4969561;28;20184;-70
2023/09/23 08:41:22;;;;;;;1.83;1.63;;;;;;;15.87;55.78;96282.75;4969638;28;20174;-68
2023/09/23 08:43:50;;;;;;;4.97;1.50;;;;;;;16.04;55.78;96282.47;4969379;28;20170;-67
2023/09/23 08:46:19;;;;;;;4.00;1.90;;;;;;;16.23;54.54;96279.44;4969354;28;20470;-68
2023/09/23 08:48:44;;;;;;;17.20;3.37;;;;;;;16.52;53.35;96284.50;4969328;28;20427;-67
2023/09/23 08:51:11;;;;;;;7.17;1.70;;;;;;;16.73;53.37;96292.75;4969347;28;20409;-69
2023/09/23 08:53:38;;;;;;;6.50;2.93;;;;;;;17.18;52.41;96284.34;4969320;28;20181;-69
2023/09/23 08:56:05;;;;;;;3.30;1.63;;;;;;;17.42;50.97;96284.34;4968768;28;20491;-69
2023/09/23 08:58:31;;;;;;;16.40;2.93;;;;;;;17.55;50.25;96283.34;4969153;28;20523;-69
2023/09/23 09:00:56;;;;;;;2.37;1.60;;;;;;;17.79;49.54;96279.84;4969654;28;20417;-69
2023/09/23 09:03:22;;;;;;;3.70;1.57;;;;;;;18.04;48.81;96281.50;4969118;28;20180;-69
2023/09/23 09:05:48;;;;;;;2.70;1.70;;;;;;;17.78;48.89;96275.47;4968850;28;20307;-69
2023/09/23 09:08:14;;;;;;;3.13;2.10;;;;;;;17.77;49.36;96273.78;4968339;28;20208;-69
2023/09/23 09:10:40;;;;;;;3.80;1.87;;;;;;;17.61;49.45;96281.19;4968839;28;20181;-68
2023/09/23 09:13:07;;;;;;;3.10;1.70;;;;;;;17.80;49.33;96285.97;4968773;28;20416;-69
2023/09/23 09:15:36;;;;;;;3.73;1.63;;;;;;;17.84;48.98;96280.38;4968446;28;21285;-69
2023/09/23 09:18:03;;;;;;;4.67;2.00;;;;;;;17.88;49.20;96280.97;4969308;28;20439;-69
2023/09/23 09:20:29;;;;;;;1.90;1.47;;;;;;;17.88;49.24;96281.84;4969509;28;20765;-68
2023/09/23 09:22:54;;;;;;;7.90;1.83;;;;;;;18.19;49.02;96277.69;4969256;28;20425;-69
2023/09/23 09:25:21;;;;;;;8.20;2.37;;;;;;;18.50;47.61;96277.16;4969279;28;20177;-69
2023/09/23 09:27:51;;;;;;;3.90;1.80;;;;;;;18.77;46.23;96275.00;4968544;28;20204;-69
2023/09/23 09:30:17;;;;;;;13.73;2.73;;;;;;;19.08;45.97;96277.88;4968976;28;20417;-69
2023/09/23 09:32:44;;;;;;;5.53;1.97;;;;;;;19.00;46.21;96278.50;4969066;28;20424;-69
2023/09/23 09:35:18;;;;;;;4.53;2.00;;;;;;;19.11;45.41;96282.97;4970354;28;20464;-69
2023/09/23 09:37:46;;;;;;;8.60;2.00;;;;;;;19.60;44.96;96280.81;4970341;28;20447;-68
2023/09/23 09:40:22;;;;;;;2.50;1.77;;;;;;;19.43;44.80;96283.03;4962514;28;20417;-69
2023/09/23 09:42:54;;;;;;;2.57;1.87;;;;;;;19.54;44.43;96282.16;4971536;28;20475;-67
2023/09/23 09:45:21;;;;;;;2.53;1.40;;;;;;;19.26;44.76;96280.91;4971193;28;20808;-69
2023/09/23 09:47:48;;;;;;;2.60;1.33;;;;;;;19.75;44.01;96274.25;4971110;28;20959;-67
2023/09/23 09:50:14;;;;;;;6.43;1.50;;;;;;;19.74;44.36;96269.06;4968354;28;20452;-69
2023/09/23 09:52:43;;;;;;;1.87;1.27;;;;;;;19.76;44.01;96275.94;4968320;28;20536;-69
2023/09/23 09:55:10;;;;;;;3.73;1.80;;;;;;;19.59;43.66;96265.81;4968286;28;20209;-69
2023/09/23 09:57:36;;;;;;;5.30;1.60;;;;;;;19.49;43.58;96281.69;4967736;28;20453;-69
2023/09/23 10:00:36;;;;;;;3.63;1.37;;;;;;;19.49;43.41;96275.50;4967792;28;20833;-68
2023/09/23 10:03:06;;;;;;;2.90;1.60;;;;;;;19.34;42.91;96282.94;4964706;28;20473;-69
2023/09/23 10:05:41;;;;;;;5.93;1.60;;;;;;;19.82;41.57;96274.59;4959221;28;20494;-68
2023/09/23 10:08:15;;;;;;;9.90;2.23;;;;;;;19.76;41.06;96275.09;4967917;28;21061;-69
2023/09/23 10:10:49;;;;;;;5.00;1.40;;;;;;;20.07;40.95;96274.22;4967779;28;20478;-69
2023/09/23 10:13:17;;;;;;;4.40;1.40;;;;;;;20.44;40.26;96278.28;4968040;28;20408;-70
2023/09/23 10:15:43;;;;;;;3.70;1.20;;;;;;;20.55;40.03;96272.88;4967397;28;20469;-69
2023/09/23 10:18:17;;;;;;;11.47;1.50;;;;;;;20.63;39.52;96273.06;4967613;28;20444;-68
2023/09/23 10:20:48;;;;;;;2.83;1.37;;;;;;;20.52;39.30;96271.28;4967763;28;20792;-69
2023/09/23 10:23:16;;;;;;;6.10;1.80;;;;;;;20.50;40.15;96275.94;4967359;28;20417;-70
2023/09/23 10:25:45;;;;;;;4.83;1.50;;;;;;;19.95;40.21;96272.59;4967248;28;20417;-69
2023/09/23 10:28:22;;;;;;;3.83;1.40;;;;;;;20.19;40.42;96269.69;4967448;28;20812;-69
2023/09/23 10:31:03;;;;;;;4.07;1.83;;;;;;;19.87;40.79;96270.56;4967486;28;20511;-68
2023/09/23 10:33:30;;;;;;;2.80;1.50;;;;;;;19.80;40.67;96277.38;4967315;28;20424;-68
2023/09/23 10:35:57;;;;;;;8.47;4.00;;;;;;;19.56;40.82;96280.22;4966811;28;20773;-69
2023/09/23 10:38:24;;;;;;;17.00;2.63;;;;;;;19.49;40.54;96276.38;4967137;28;20554;-69
2023/09/23 10:40:54;;;;;;;3.40;1.70;;;;;;;19.51;40.52;96284.22;4967541;28;20416;-69
2023/09/23 10:43:21;;;;;;;5.03;1.73;;;;;;;19.51;40.48;96281.56;4967705;28;20926;-69
2023/09/23 10:45:57;;;;;;;1.90;1.40;;;;;;;19.45;39.97;96274.94;4967506;28;20421;-70
2023/09/23 10:48:23;;;;;;;9.30;2.33;;;;;;;19.58;40.53;96280.09;4967711;28;20532;-69
2023/09/23 10:50:51;;;;;;;5.70;1.53;;;;;;;19.77;39.70;96274.13;4967668;28;20835;-69
2023/09/23 10:53:18;;;;;;;7.40;1.80;;;;;;;20.12;39.04;96273.84;4966774;28;20309;-69
2023/09/23 10:55:44;;;;;;;4.53;1.30;;;;;;;20.08;39.37;96272.44;4964359;28;20468;-69
2023/09/23 10:58:10;;;;;;;2.97;1.53;;;;;;;19.89;39.24;96281.13;4964547;28;20464;-69
2023/09/23 11:00:36;;;;;;;3.10;1.27;;;;;;;19.90;38.75;96285.44;4965566;28;20679;-69
2023/09/23 11:03:09;;;;;;;4.87;2.03;;;;;;;20.30;37.54;96282.94;4967620;28;20189;-69
2023/09/23 11:05:39;;;;;;;3.37;1.47;;;;;;;20.02;38.20;96284.41;4966862;28;20419;-68
2023/09/23 11:08:10;;;;;;;3.07;1.60;;;;;;;20.27;38.22;96282.38;4967363;28;20445;-68
2023/09/23 11:10:38;;;;;;;4.40;1.60;;;;;;;20.22;37.61;96281.91;4967436;28;20424;-69
2023/09/23 11:13:05;;;;;;;7.50;1.47;;;;;;;20.41;37.45;96276.72;4967218;28;20511;-69
2023/09/23 11:15:31;;;;;;;4.80;1.57;;;;;;;20.67;36.68;96282.50;4965466;28;20465;-68
2023/09/23 11:17:56;;;;;;;2.90;1.40;;;;;;;20.85;36.90;96277.38;4968044;28;20444;-67
2023/09/23 11:20:32;;;;;;;2.93;1.30;;;;;;;20.91;37.09;96282.19;4964349;28;20177;-67
2023/09/23 11:23:00;;;;;;;2.60;1.50;;;;;;;20.34;37.84;96286.22;4964296;28;20180;-69
2023/09/23 11:25:26;;;;;;;6.13;1.70;;;;;;;20.02;38.00;96289.75;4963844;28;20420;-69
2023/09/23 11:27:51;;;;;;;4.10;1.63;;;;;;;19.96;38.48;96289.41;4963718;28;20429;-68
2023/09/23 11:30:17;;;;;;;18.73;3.03;;;;;;;19.56;37.88;96288.22;4964140;28;20185;-69